Time;durP1;ratioP1;P1;durP2;ratioP2;P2;SDS_P1;SDS_P2;PMS_P1;PMS_P2;Temp;Humidity;BMP_temperature;BMP_pressure;BME280_temperature;BME280_humidity;BME280_pressure;Samples;Min_cycle;Max_cycle;Signal;HPM_P1;HPM_P2
2022/01/03 00:02:36;;;;;;;5.22;2.80;;;;;;;11.32;100.00;98505.31;4260547;82;28499;-80
2022/01/03 00:08:42;;;;;;;5.92;2.87;;;;;;;11.36;100.00;98487.61;4285110;82;28514;-82
2022/01/03 00:14:43;;;;;;;5.40;2.70;;;;;;;11.40;100.00;98477.45;4303569;82;28560;-83
2022/01/03 00:20:58;;;;;;;5.87;2.87;;;;;;;11.36;100.00;98491.11;4288283;82;28515;-82
2022/01/03 00:27:04;;;;;;;5.87;2.80;;;;;;;11.40;100.00;98478.80;4263496;82;28497;-81
2022/01/03 00:33:07;;;;;;;5.97;3.08;;;;;;;11.36;100.00;98488.96;4201921;82;43442;-81
2022/01/03 00:39:09;;;;;;;6.20;3.27;;;;;;;11.46;100.00;98490.44;4189304;83;28521;-80
2022/01/03 00:45:11;;;;;;;6.78;2.95;;;;;;;11.47;100.00;98468.35;4186837;83;29012;-81
2022/01/03 00:51:17;;;;;;;6.25;2.77;;;;;;;11.53;100.00;98469.50;4189713;83;28467;-80
2022/01/03 00:57:24;;;;;;;5.75;3.10;;;;;;;11.43;100.00;98474.77;4176188;83;28574;-80
2022/01/03 01:03:36;;;;;;;5.92;2.87;;;;;;;11.38;100.00;98460.71;4192089;83;28510;-80
2022/01/03 01:09:40;;;;;;;5.65;2.52;;;;;;;11.26;100.00;98448.75;4184213;83;28526;-81
2022/01/03 01:15:42;;;;;;;6.92;2.92;;;;;;;11.44;100.00;98457.03;4124158;84;28922;-81
2022/01/03 01:21:46;;;;;;;6.08;3.12;;;;;;;11.48;100.00;98441.71;4192153;83;28544;-81
2022/01/03 01:27:50;;;;;;;7.05;3.42;;;;;;;11.22;100.00;98436.04;4165448;83;28894;-81
2022/01/03 01:33:56;;;;;;;7.12;3.22;;;;;;;11.25;100.00;98440.91;4240382;82;28545;-81
2022/01/03 01:39:59;;;;;;;5.80;3.05;;;;;;;11.27;100.00;98444.16;4236119;82;28565;-80
2022/01/03 01:46:13;;;;;;;6.05;2.83;;;;;;;11.40;100.00;98437.59;4217145;82;28580;-79
2022/01/03 01:52:22;;;;;;;5.53;2.77;;;;;;;11.38;100.00;98425.72;4228581;82;28520;-80
2022/01/03 01:58:36;;;;;;;5.85;3.12;;;;;;;11.44;100.00;98417.17;4220691;82;28503;-80
2022/01/03 02:04:49;;;;;;;4.50;2.70;;;;;;;11.33;100.00;98407.36;4192778;82;28531;-80
2022/01/03 02:11:20;;;;;;;5.97;2.65;;;;;;;11.44;100.00;98397.81;4230673;82;28522;-79
2022/01/03 02:17:24;;;;;;;4.47;2.30;;;;;;;11.39;100.00;98400.43;4225614;82;28508;-79
2022/01/03 02:23:27;;;;;;;5.28;2.55;;;;;;;11.53;100.00;98407.59;4221270;82;28506;-80
2022/01/03 02:29:29;;;;;;;5.28;2.67;;;;;;;11.60;100.00;98415.45;4226740;80;28522;-80
2022/01/03 02:35:38;;;;;;;5.92;2.60;;;;;;;11.60;100.00;98400.66;4195186;83;28542;-81
2022/01/03 02:41:40;;;;;;;3.62;2.30;;;;;;;11.59;100.00;98385.56;4170395;83;28561;-81
2022/01/03 02:47:45;;;;;;;5.53;2.05;;;;;;;11.58;100.00;98360.54;4201014;83;28565;-80
2022/01/03 02:53:47;;;;;;;3.40;1.95;;;;;;;11.63;100.00;98356.26;4196750;83;28526;-80
2022/01/03 02:59:57;;;;;;;3.33;2.15;;;;;;;11.53;100.00;98356.98;4192628;83;28510;-81
2022/01/03 03:05:59;;;;;;;5.97;2.37;;;;;;;11.42;100.00;98355.53;4175778;83;28520;-82
2022/01/03 03:12:01;;;;;;;5.45;2.90;;;;;;;11.36;100.00;98359.23;4195006;83;28513;-79
2022/01/03 03:18:04;;;;;;;4.65;2.40;;;;;;;11.23;100.00;98360.98;4185626;83;28543;-78
2022/01/03 03:24:06;;;;;;;3.67;1.98;;;;;;;11.21;100.00;98362.56;4165861;83;28470;-79
2022/01/03 03:30:12;;;;;;;3.60;2.12;;;;;;;11.27;100.00;98356.19;4204684;83;28490;-78
2022/01/03 03:36:15;;;;;;;;;;;;;;;11.23;100.00;98352.91;4253479;81;28591;-79
2022/01/03 03:42:17;;;;;;;3.55;2.20;;;;;;;11.31;100.00;98341.70;4274039;81;20534;-81
2022/01/03 03:48:20;;;;;;;4.90;2.62;;;;;;;11.23;100.00;98346.97;4290726;81;28637;-81
2022/01/03 03:54:22;;;;;;;5.05;2.27;;;;;;;11.29;100.00;98335.73;4280816;81;28560;-81
2022/01/03 04:00:25;;;;;;;3.98;2.10;;;;;;;11.23;100.00;98341.59;4279768;81;28529;-80
2022/01/03 04:06:28;;;;;;;2.83;2.00;;;;;;;11.23;100.00;98334.86;4277771;81;28542;-81
2022/01/03 04:12:31;;;;;;;5.25;2.30;;;;;;;11.39;100.00;98324.27;4281389;81;28657;-81
2022/01/03 04:18:33;;;;;;;3.58;2.10;;;;;;;11.38;100.00;98330.73;4273430;81;28556;-80
2022/01/03 04:24:35;;;;;;;3.95;2.30;;;;;;;11.37;100.00;98324.52;4266258;81;28554;-79
2022/01/03 04:30:37;;;;;;;5.60;2.20;;;;;;;11.41;100.00;98333.73;4229857;81;28593;-81
2022/01/03 04:36:39;;;;;;;4.53;2.17;;;;;;;11.36;100.00;98322.89;4203671;83;28493;-80
2022/01/03 04:42:40;;;;;;;4.28;2.05;;;;;;;11.43;100.00;98327.55;4200408;83;28498;-79
2022/01/03 04:48:42;;;;;;;4.25;2.12;;;;;;;11.48;100.00;98314.68;4196388;83;28566;-80
2022/01/03 04:54:44;;;;;;;4.78;2.10;;;;;;;11.58;100.00;98297.27;4195095;83;28528;-81
2022/01/03 05:00:47;;;;;;;2.77;1.92;;;;;;;11.56;100.00;98314.74;4194584;83;28566;-80
2022/01/03 05:06:49;;;;;;;2.83;2.10;;;;;;;11.62;100.00;98298.09;4198650;83;28529;-81
2022/01/03 05:12:50;;;;;;;3.40;1.80;;;;;;;11.63;100.00;98291.13;4189287;83;28549;-80
2022/01/03 05:18:52;;;;;;;3.58;1.90;;;;;;;11.49;100.00;98279.13;4210298;83;28553;-80
2022/01/03 05:24:53;;;;;;;3.92;2.10;;;;;;;11.72;100.00;98277.98;4191482;83;28522;-80
2022/01/03 05:30:55;;;;;;;4.15;2.27;;;;;;;11.64;100.00;98266.34;4208272;83;28492;-80
2022/01/03 05:36:56;;;;;;;3.80;2.08;;;;;;;11.66;100.00;98251.56;4210216;83;28510;-80
2022/01/03 05:42:58;;;;;;;11.08;2.85;;;;;;;11.64;100.00;98257.73;4187047;83;28533;-80
2022/01/03 05:48:59;;;;;;;5.35;2.00;;;;;;;11.73;100.00;98255.37;4190810;83;28539;-80
2022/01/03 05:55:00;;;;;;;2.87;1.87;;;;;;;11.71;100.00;98246.75;4195507;83;28516;-80
2022/01/03 06:01:02;;;;;;;5.85;1.80;;;;;;;11.51;100.00;98246.86;4199252;83;28496;-78
2022/01/03 06:07:09;;;;;;;2.67;1.37;;;;;;;11.52;100.00;98249.03;4202098;83;28583;-80
2022/01/03 06:13:13;;;;;;;5.03;1.50;;;;;;;11.49;100.00;98250.88;4200747;83;28514;-80
2022/01/03 06:19:15;;;;;;;2.58;1.15;;;;;;;11.43;100.00;98241.94;4185643;83;28524;-80
2022/01/03 06:25:17;;;;;;;4.12;2.08;;;;;;;11.38;100.00;98222.52;4170911;83;28515;-79
2022/01/03 06:31:19;;;;;;;2.75;1.80;;;;;;;11.39;100.00;98226.83;4195201;81;28600;-80
2022/01/03 06:37:22;;;;;;;6.00;2.30;;;;;;;11.39;100.00;98229.53;4196831;82;28471;-81
2022/01/03 06:43:25;;;;;;;5.37;2.20;;;;;;;11.38;100.00;98241.91;4195425;82;28528;-81
2022/01/03 06:49:26;;;;;;;4.92;2.52;;;;;;;11.20;100.00;98241.76;4193893;82;28518;-81
2022/01/03 06:55:28;;;;;;;6.28;2.72;;;;;;;11.35;100.00;98243.23;4196092;82;28512;-82
2022/01/03 07:01:30;;;;;;;5.60;2.62;;;;;;;11.10;100.00;98256.73;4178969;82;28499;-84
2022/01/03 07:07:32;;;;;;;3.90;2.10;;;;;;;11.13;100.00;98269.66;4196886;82;28509;-75
2022/01/03 07:13:43;;;;;;;3.95;1.80;;;;;;;10.82;100.00;98263.13;4194715;82;28618;-76
2022/01/03 07:19:38;;;;;;;4.35;2.08;;;;;;;11.11;100.00;98254.31;4194419;82;28577;-79
2022/01/03 07:25:39;;;;;;;5.55;1.82;;;;;;;11.26;100.00;98247.45;4197359;83;28660;-80
2022/01/03 07:31:40;;;;;;;2.35;1.45;;;;;;;11.25;100.00;98251.20;4191078;82;28536;-79
2022/01/03 07:37:42;;;;;;;4.83;1.40;;;;;;;11.38;100.00;98248.09;4186102;82;28535;-78
2022/01/03 07:43:44;;;;;;;3.42;1.50;;;;;;;11.44;100.00;98258.36;4190885;82;28517;-82
2022/01/03 07:49:45;;;;;;;4.75;1.50;;;;;;;11.61;100.00;98263.65;4209271;82;28546;-79
2022/01/03 07:55:47;;;;;;;3.50;1.50;;;;;;;11.64;100.00;98276.59;4206225;82;28475;-80
2022/01/03 08:01:48;;;;;;;4.80;2.10;;;;;;;11.57;100.00;98282.19;4190712;82;28520;-79
2022/01/03 08:07:49;;;;;;;4.30;1.70;;;;;;;11.47;100.00;98288.00;4211957;82;28575;-78
2022/01/03 08:13:50;;;;;;;4.33;1.60;;;;;;;11.53;100.00;98293.73;4195261;82;28548;-81
2022/01/03 08:19:52;;;;;;;2.67;1.20;;;;;;;11.69;100.00;98300.84;4197465;82;28540;-79
2022/01/03 08:25:53;;;;;;;5.40;1.42;;;;;;;11.86;100.00;98302.05;4196670;82;28562;-78
2022/01/03 08:31:55;;;;;;;3.40;1.50;;;;;;;11.76;100.00;98291.20;4192639;82;28557;-80
2022/01/03 08:37:58;;;;;;;4.75;1.65;;;;;;;11.88;100.00;98291.03;4197565;83;28569;-81
2022/01/03 08:43:59;;;;;;;3.25;1.45;;;;;;;11.87;100.00;98297.50;4195700;83;28540;-81
2022/01/03 08:50:01;;;;;;;2.25;1.02;;;;;;;12.03;100.00;98311.09;4193475;83;28552;-81
2022/01/03 08:56:04;;;;;;;3.25;1.40;;;;;;;11.97;100.00;98316.95;4194941;83;28582;-82
2022/01/03 09:02:05;;;;;;;3.72;1.57;;;;;;;11.95;100.00;98319.92;4195920;83;28552;-82
2022/01/03 09:08:07;;;;;;;2.67;1.30;;;;;;;11.96;100.00;98315.33;4176251;83;29010;-80
2022/01/03 09:14:08;;;;;;;2.72;1.30;;;;;;;11.99;100.00;98333.69;4189639;83;28641;-81
2022/01/03 09:20:10;;;;;;;3.80;1.57;;;;;;;11.85;100.00;98326.02;4190132;83;28481;-82
2022/01/03 09:32:32;;;;;;;3.60;1.60;;;;;;;12.04;100.00;98319.48;4203347;83;28534;-79
2022/01/03 09:38:34;;;;;;;3.17;1.70;;;;;;;12.15;100.00;98333.82;4194055;82;28555;-84
2022/01/03 09:44:36;;;;;;;5.17;1.62;;;;;;;12.05;100.00;98323.24;4201605;82;28569;-82
2022/01/03 09:50:37;;;;;;;4.17;1.65;;;;;;;12.14;100.00;98319.55;4193086;82;28522;-81
2022/01/03 09:56:40;;;;;;;2.70;1.25;;;;;;;12.17;100.00;98304.20;4194990;82;28590;-82
2022/01/03 10:02:44;;;;;;;3.15;1.37;;;;;;;11.99;100.00;98304.85;4198336;82;28516;-81
2022/01/03 10:08:47;;;;;;;3.92;1.47;;;;;;;12.12;100.00;98302.28;4202317;82;28540;-80
2022/01/03 10:14:48;;;;;;;3.05;1.50;;;;;;;11.96;100.00;98301.86;4198038;82;28489;-80
2022/01/03 10:20:52;;;;;;;3.40;1.32;;;;;;;12.06;100.00;98296.57;4189830;82;28507;-78
2022/01/03 10:26:55;;;;;;;2.22;1.10;;;;;;;12.07;100.00;98292.80;4193019;82;28579;-79
2022/01/03 10:32:56;;;;;;;2.20;1.00;;;;;;;12.45;100.00;98294.13;4191208;82;28550;-81
2022/01/03 10:38:59;;;;;;;2.40;1.30;;;;;;;12.38;100.00;98302.98;4190570;83;28521;-77
2022/01/03 10:45:00;;;;;;;3.33;1.27;;;;;;;12.41;100.00;98288.97;4186114;83;28534;-78
2022/01/03 10:51:03;;;;;;;2.92;1.15;;;;;;;12.58;100.00;98301.47;4182354;83;28547;-78
2022/01/03 10:57:04;;;;;;;3.40;1.20;;;;;;;12.59;100.00;98281.52;4190356;83;28525;-79
2022/01/03 11:03:31;;;;;;;1.85;0.90;;;;;;;12.36;100.00;98283.02;4195812;83;28562;-78
2022/01/03 11:16:02;;;;;;;2.25;1.00;;;;;;;12.37;100.00;98270.36;4193993;83;28623;-77
2022/01/03 11:22:04;;;;;;;2.50;1.07;;;;;;;12.52;100.00;98248.85;4192712;83;28608;-77
2022/01/03 11:28:07;;;;;;;2.50;0.95;;;;;;;12.19;100.00;98261.63;4195850;83;28512;-79
2022/01/03 11:34:12;;;;;;;1.62;0.88;;;;;;;11.57;100.00;98286.75;4198581;83;28576;-79
2022/01/03 11:40:16;;;;;;;2.60;1.30;;;;;;;11.29;100.00;98271.15;4209576;83;28545;-78
2022/01/03 11:46:18;;;;;;;2.62;1.20;;;;;;;11.23;100.00;98260.08;4209352;83;28571;-78
2022/01/03 11:52:22;;;;;;;2.70;1.22;;;;;;;11.25;100.00;98256.07;4210593;82;28588;-77
2022/01/03 11:58:58;;;;;;;2.22;1.17;;;;;;;11.14;100.00;98252.97;4215946;82;28527;-75
2022/01/03 12:04:58;;;;;;;3.85;1.77;;;;;;;11.13;100.00;98254.87;4198825;83;28510;-77
2022/01/03 12:11:04;;;;;;;2.47;1.32;;;;;;;11.24;100.00;98257.11;4212008;83;28489;-77
2022/01/03 12:17:08;;;;;;;3.95;1.40;;;;;;;11.25;100.00;98238.58;4185613;83;28555;-78
2022/01/03 12:23:10;;;;;;;4.58;1.72;;;;;;;11.11;100.00;98252.97;4213400;83;28511;-77
2022/01/03 12:29:11;;;;;;;4.00;1.47;;;;;;;10.97;100.00;98250.39;4211947;83;28551;-75
2022/01/03 12:35:20;;;;;;;5.37;1.37;;;;;;;11.10;100.00;98244.62;4239512;82;28588;-79
2022/01/03 12:41:45;;;;;;;3.35;1.42;;;;;;;10.97;100.00;98250.39;4253244;82;28552;-77
2022/01/03 12:47:46;;;;;;;3.90;1.42;;;;;;;11.23;100.00;98251.45;4257174;82;28559;-79
2022/01/03 12:53:49;;;;;;;3.75;1.60;;;;;;;11.40;100.00;98242.47;4262605;82;28561;-77
2022/01/03 12:59:50;;;;;;;6.17;1.95;;;;;;;11.50;100.00;98259.22;4255757;82;28517;-77
2022/01/03 13:06:28;;;;;;;7.25;2.20;;;;;;;11.44;100.00;98259.19;4268543;82;28556;-77
2022/01/03 13:12:31;;;;;;;6.85;2.02;;;;;;;11.44;100.00;98271.82;4267902;82;28525;-80
2022/01/03 13:18:32;;;;;;;6.50;2.17;;;;;;;11.30;100.00;98264.73;4246460;82;28588;-78
2022/01/03 13:24:45;;;;;;;6.28;2.05;;;;;;;11.05;100.00;98271.45;4256563;82;28513;-78
2022/01/03 13:31:02;;;;;;;5.55;2.33;;;;;;;10.94;100.00;98268.38;4254835;82;28541;-77
2022/01/03 13:37:09;;;;;;;6.42;2.20;;;;;;;10.96;100.00;98274.31;4198515;82;28578;-77
2022/01/03 13:43:14;;;;;;;6.97;2.30;;;;;;;10.94;100.00;98293.94;4188973;83;28563;-76
2022/01/03 13:49:21;;;;;;;4.70;2.05;;;;;;;10.75;100.00;98298.28;4186743;83;28554;-73
2022/01/03 13:55:28;;;;;;;5.65;2.40;;;;;;;10.78;100.00;98287.56;4191528;83;28546;-76
2022/01/03 14:01:30;;;;;;;6.37;2.35;;;;;;;10.82;100.00;98291.37;4188520;83;28539;-77
2022/01/03 14:07:31;;;;;;;6.50;2.62;;;;;;;10.81;100.00;98285.71;4190914;83;28574;-75
2022/01/03 14:13:32;;;;;;;8.08;2.22;;;;;;;10.85;100.00;98297.06;4189496;83;28553;-78
2022/01/03 14:19:36;;;;;;;5.65;2.02;;;;;;;10.77;100.00;98308.80;4185992;83;28547;-77
2022/01/03 14:25:38;;;;;;;7.70;2.58;;;;;;;10.83;100.00;98322.56;4188957;83;28527;-76
2022/01/03 14:31:59;;;;;;;6.15;2.37;;;;;;;10.76;100.00;98342.13;4177388;83;28622;-76
2022/01/03 14:38:13;;;;;;;5.60;2.20;;;;;;;10.93;100.00;98344.75;4192965;82;28617;-76
2022/01/03 14:44:16;;;;;;;6.10;1.72;;;;;;;11.00;100.00;98344.84;4190600;82;28572;-77
2022/01/03 14:50:19;;;;;;;6.72;2.35;;;;;;;11.21;100.00;98348.31;4176004;82;28487;-76
2022/01/03 14:56:27;;;;;;;5.80;1.90;;;;;;;10.97;100.00;98354.77;4208307;82;28540;-77
2022/01/03 15:02:29;;;;;;;4.90;1.70;;;;;;;11.21;99.82;98373.33;4197430;82;28525;-82
2022/01/03 15:08:33;;;;;;;4.50;1.55;;;;;;;11.14;100.00;98373.52;4198405;82;28544;-79
2022/01/03 15:14:34;;;;;;;8.30;1.77;;;;;;;11.02;100.00;98391.13;4194908;82;28538;-81
2022/01/03 15:20:35;;;;;;;4.22;1.57;;;;;;;11.01;98.64;98396.23;4200580;82;28555;-80
2022/01/03 15:26:37;;;;;;;5.45;1.85;;;;;;;11.06;97.68;98402.75;4218684;82;28546;-77
2022/01/03 15:32:38;;;;;;;9.35;2.12;;;;;;;11.15;100.00;98402.59;4204477;82;28562;-80
2022/01/03 15:38:41;;;;;;;5.80;2.22;;;;;;;11.20;100.00;98401.84;4236321;82;28493;-81
2022/01/03 15:44:44;;;;;;;8.90;2.98;;;;;;;11.13;100.00;98406.05;4226527;82;28582;-77
2022/01/03 15:50:46;;;;;;;6.67;2.42;;;;;;;11.04;100.00;98416.44;4203519;82;28545;-81
2022/01/03 15:56:48;;;;;;;6.83;2.10;;;;;;;10.71;100.00;98427.56;4212955;82;28551;-83
2022/01/03 16:02:51;;;;;;;6.90;2.42;;;;;;;10.98;100.00;98424.97;4220763;82;28523;-81
2022/01/03 16:08:52;;;;;;;7.42;2.95;;;;;;;11.23;100.00;98420.17;4204162;82;28537;-82
2022/01/03 16:14:54;;;;;;;8.03;3.25;;;;;;;11.24;100.00;98429.87;4198622;82;28526;-79
2022/01/03 16:20:57;;;;;;;8.50;2.55;;;;;;;11.09;100.00;98427.80;4214773;82;28541;-80
2022/01/03 16:26:58;;;;;;;8.03;2.98;;;;;;;11.21;100.00;98428.48;4210291;82;28514;-83
2022/01/03 16:33:02;;;;;;;7.15;2.70;;;;;;;10.98;100.00;98438.94;4203091;83;28513;-83
2022/01/03 16:39:07;;;;;;;7.17;2.67;;;;;;;10.85;100.00;98440.93;4210116;83;28552;-83
2022/01/03 16:45:12;;;;;;;6.70;2.77;;;;;;;10.78;100.00;98438.97;4216181;82;28493;-78
2022/01/03 16:51:14;;;;;;;7.30;2.70;;;;;;;10.74;100.00;98447.23;4215409;83;45920;-81
2022/01/03 16:57:17;;;;;;;9.58;3.22;;;;;;;10.78;100.00;98447.03;4214754;82;28566;-82
2022/01/03 17:03:18;;;;;;;6.92;3.27;;;;;;;10.81;100.00;98454.59;4213294;83;28492;-80
2022/01/03 17:09:36;;;;;;;9.20;4.17;;;;;;;10.95;100.00;98459.62;4212346;83;28560;-84
2022/01/03 17:15:26;;;;;;;11.70;4.20;;;;;;;10.97;100.00;98466.39;4214144;83;28520;-84
2022/01/03 17:21:27;;;;;;;11.03;4.10;;;;;;;10.85;100.00;98469.72;4210287;82;28571;-83
2022/01/03 17:27:29;;;;;;;9.38;3.65;;;;;;;10.74;100.00;98466.05;4225863;82;28522;-86
2022/01/03 17:33:30;;;;;;;11.85;4.03;;;;;;;10.75;100.00;98462.30;4205792;81;28558;-84
2022/01/03 17:39:35;;;;;;;8.85;3.10;;;;;;;10.79;100.00;98462.63;4205586;82;28526;-83
2022/01/03 17:45:36;;;;;;;8.15;3.25;;;;;;;10.70;100.00;98463.58;4194293;82;28538;-79
2022/01/03 17:51:38;;;;;;;8.83;3.30;;;;;;;10.82;100.00;98463.47;4206301;82;28545;-84
2022/01/03 17:57:39;;;;;;;9.15;3.35;;;;;;;10.72;100.00;98450.70;4203036;82;28562;-79
2022/01/03 18:03:41;;;;;;;13.98;4.87;;;;;;;10.85;100.00;98456.27;4193789;82;28554;-83
2022/01/03 18:09:42;;;;;;;11.43;4.35;;;;;;;10.90;100.00;98446.91;4205064;82;28562;-81
2022/01/03 18:15:44;;;;;;;11.38;4.87;;;;;;;10.93;100.00;98432.16;4196726;82;28574;-83
2022/01/03 18:21:46;;;;;;;13.90;5.12;;;;;;;10.92;100.00;98432.68;4205318;82;28509;-83
2022/01/03 18:27:48;;;;;;;13.30;4.87;;;;;;;10.95;100.00;98436.23;4201567;82;28525;-84
2022/01/03 18:33:50;;;;;;;13.38;5.45;;;;;;;10.87;100.00;98428.05;4204043;82;28552;-84
2022/01/03 18:39:52;;;;;;;11.85;4.22;;;;;;;10.85;100.00;98426.69;4042987;86;28551;-78
2022/01/03 18:45:54;;;;;;;11.33;4.30;;;;;;;10.72;100.00;98423.27;4046100;86;28532;-82
2022/01/03 18:51:55;;;;;;;10.85;4.35;;;;;;;10.52;100.00;98427.83;4042287;86;28548;-82
2022/01/03 18:57:57;;;;;;;10.58;4.00;;;;;;;10.34;100.00;98424.84;4045648;86;29656;-79
2022/01/03 19:03:59;;;;;;;6.65;2.95;;;;;;;10.36;100.00;98420.03;4043434;86;28586;-81
2022/01/03 19:10:02;;;;;;;8.65;3.92;;;;;;;10.24;100.00;98426.81;4025399;86;28523;-80
2022/01/03 19:16:04;;;;;;;9.20;3.87;;;;;;;10.22;100.00;98422.22;4043767;86;28536;-79
2022/01/03 19:22:08;;;;;;;10.68;3.50;;;;;;;10.17;100.00;98414.09;4086583;85;28523;-76
2022/01/03 19:28:11;;;;;;;7.50;3.15;;;;;;;10.28;100.00;98409.17;4053598;86;28525;-78
2022/01/03 19:40:35;;;;;;;9.05;3.37;;;;;;;10.24;100.00;98408.55;4224617;82;28553;-76
2022/01/03 19:46:36;;;;;;;8.60;2.75;;;;;;;10.25;100.00;98416.89;4191061;82;28483;-79
2022/01/03 19:52:37;;;;;;;7.33;2.52;;;;;;;10.34;99.36;98418.13;4194037;82;28555;-77
2022/01/03 19:58:40;;;;;;;8.13;3.00;;;;;;;10.32;100.00;98410.84;4218713;82;28519;-80
2022/01/03 20:04:41;;;;;;;7.12;2.52;;;;;;;10.23;100.00;98412.30;4195868;82;28532;-78
2022/01/03 20:10:43;;;;;;;6.20;2.80;;;;;;;10.21;100.00;98408.50;4215103;82;28541;-78
2022/01/03 20:16:46;;;;;;;8.95;3.02;;;;;;;10.33;100.00;98409.78;4219228;82;28525;-82
2022/01/03 20:22:47;;;;;;;6.35;2.87;;;;;;;10.48;99.97;98405.20;4226386;82;28547;-81
2022/01/03 20:28:49;;;;;;;9.93;3.35;;;;;;;10.47;99.87;98388.79;4220437;82;28581;-80
2022/01/03 20:34:51;;;;;;;10.00;3.58;;;;;;;10.41;97.21;98396.45;4217176;82;28586;-81
2022/01/03 20:40:52;;;;;;;9.03;3.62;;;;;;;10.48;98.70;98394.45;4200253;82;28557;-83
2022/01/03 20:46:55;;;;;;;10.35;4.10;;;;;;;10.38;95.89;98391.03;4198007;82;28466;-84
2022/01/03 20:52:56;;;;;;;10.23;4.05;;;;;;;10.53;94.55;98386.99;4195143;82;28550;-83
2022/01/03 20:58:57;;;;;;;9.90;3.77;;;;;;;10.46;94.13;98373.19;4197045;82;28539;-80
2022/01/03 21:05:03;;;;;;;11.05;3.90;;;;;;;10.49;93.58;98367.85;4215897;82;28494;-80
2022/01/03 21:11:07;;;;;;;10.08;3.67;;;;;;;10.49;92.42;98363.83;4205286;82;28525;-82
2022/01/03 21:17:08;;;;;;;11.15;3.62;;;;;;;10.44;94.36;98365.08;4203163;82;28498;-81
2022/01/03 21:23:17;;;;;;;10.20;3.67;;;;;;;10.44;91.70;98361.05;4117734;84;28563;-80
2022/01/03 21:29:19;;;;;;;11.60;3.75;;;;;;;10.36;93.89;98350.16;4144726;83;28488;-81
2022/01/03 21:35:21;;;;;;;9.48;3.40;;;;;;;10.45;93.45;98350.06;4150550;83;28583;-82
2022/01/03 21:41:22;;;;;;;10.50;3.65;;;;;;;10.44;92.90;98347.09;4145948;84;28529;-81
2022/01/03 21:47:24;;;;;;;10.20;3.45;;;;;;;10.29;91.77;98340.11;4112580;84;28508;-82
2022/01/03 21:53:29;;;;;;;8.48;3.25;;;;;;;10.35;91.37;98332.94;4215376;82;28524;-82
2022/01/03 21:59:33;;;;;;;8.63;3.50;;;;;;;10.43;90.13;98334.72;4219014;82;28549;-81
2022/01/03 22:05:34;;;;;;;6.15;2.72;;;;;;;10.39;91.45;98312.59;4216658;82;28565;-84
2022/01/03 22:11:36;;;;;;;8.90;3.00;;;;;;;10.45;90.99;98317.81;4223415;82;28544;-83
2022/01/03 22:17:37;;;;;;;8.50;3.12;;;;;;;10.44;89.50;98312.16;4220500;82;28523;-83
2022/01/03 22:23:38;;;;;;;7.95;2.77;;;;;;;10.36;92.61;98303.66;4220398;82;28565;-83
2022/01/03 22:29:45;;;;;;;7.28;2.92;;;;;;;10.20;94.50;98306.14;4217879;82;28513;-82
2022/01/03 22:35:46;;;;;;;8.70;3.52;;;;;;;10.14;95.38;98309.28;4217922;82;28577;-81
2022/01/03 22:41:48;;;;;;;8.48;3.10;;;;;;;10.18;97.08;98315.78;4195066;82;28498;-82
2022/01/03 22:47:50;;;;;;;8.38;2.58;;;;;;;10.23;98.68;98304.84;4195493;83;28596;-83
2022/01/03 22:53:52;;;;;;;6.97;2.30;;;;;;;10.23;99.60;98292.21;4198538;82;28556;-82
2022/01/03 22:59:54;;;;;;;9.25;2.70;;;;;;;10.19;100.00;98276.31;4200354;82;28530;-83
2022/01/03 23:05:57;;;;;;;6.60;2.40;;;;;;;10.28;100.00;98280.72;4194409;82;28465;-83
2022/01/03 23:11:58;;;;;;;5.53;2.35;;;;;;;10.35;100.00;98279.20;4194777;82;28545;-81
2022/01/03 23:18:00;;;;;;;5.87;2.37;;;;;;;10.33;100.00;98277.57;4201893;82;28567;-82
2022/01/03 23:24:04;;;;;;;5.17;2.17;;;;;;;10.35;100.00;98270.62;4183559;82;28546;-82
2022/01/03 23:30:09;;;;;;;4.17;1.70;;;;;;;10.40;100.00;98271.22;4195366;82;28471;-81
2022/01/03 23:36:11;;;;;;;4.35;1.75;;;;;;;10.32;100.00;98265.75;4189209;82;28586;-81
2022/01/03 23:42:12;;;;;;;7.25;1.90;;;;;;;10.25;100.00;98265.91;4195638;82;28533;-84
2022/01/03 23:48:13;;;;;;;6.08;2.02;;;;;;;10.21;100.00;98258.61;4195886;82;28566;-82
2022/01/03 23:54:15;;;;;;;4.42;1.77;;;;;;;10.18;100.00;98258.03;4204104;82;28554;-83
